Chandler Field
KAXN : now visible

Airfield :











YOU CAN JOIN US ON...

 
LOGIN :

Register | Disclaimer

   EN    FR    IT 

 









Legend :    VFR   Marginal VFR   IFR   Intensive IFR   Very Intensive IFR
Visi :
Ceiling :
>= 8 km
>= 3000ft
5 to 8 km
1000 to 3000 ft
1500m to 5 km
500 to 1000 ft
800 to 1500m
200 to 500 ft
< 800m
< 200 ft
Symbols :   Thunderstorms  Fog  Heavy snow  Heavy precipitations  Wind > 20 kt






- Airport Elevation : 1425 ft


KAXN - Chandler Field

CURRENT METAR :
  • 180653Z AUTO 33011KT 10SM OVC013 M08/M11 A2981 RMK AO2 SLP120 T10831111

EXPIRED METARs :
  • 180608Z AUTO 33012KT 10SM OVC014 M08/M11 A2981 RMK AO2 T10781106
  • 180553Z AUTO 33009KT 10SM OVC015 M07/M11 A2982 RMK AO2 SLP122 T10721106 11056 21072 410441094 53005
  • 180453Z AUTO 33008G17KT 10SM OVC017 M07/M10 A2981 RMK AO2 SLP118 T10671100

TAF KAXN
Valid from the 18 at 06:00 until the 19 at 06:00 UTC


180520Z 1806/1906 34005KT P6SM OVC015
FM182000 32010KT 6SM -SN BR SCT020 OVC050
FM190100 32008KT P6SM SCT020 BKN050
KZMP FIR / North America



MET'MAP, your aeronautical weather chart ! - Copyright ORBIFLY December 2007 - Disclaimer

ORBIFLY MET'MAP TEAM :

Programming & Development : Alexandra Zaïnal
Concept & original design : Baudouin d'Aumeries
Assistance for programming : Marc-Olivier Méhu
Technical & hardware support : Manuel Goepfert

Contact : metmap@orbifly.com




SOURCES & CREDITS :

   NOAA       Earth
Advisory